SWR49L LROP-LSZH
Flight info
| Callsign | SWR49L |
|---|---|
| Flight time | N/A |
| Altitude | 34000 |
| Route | SOKRU DCT OXDOC DCT NEKUL DCT MOPUG DCT GOTAR DCT ERKIR DCT KPT/N0435F300 L856 NEGRA |
| Aircraft | A321/M-SDE3FGHIRWY/LB1 |
Departure
| Time | 2026-05-04 11:41 |
|---|---|
| Airport | Bucharest Henri Coandă International Airport (LROP) |
Arrival
| Time | N/A |
|---|---|
| Airport | Zürich Airport (LSZH) |
| Time | Latitude | Longitude | Altitude | Speed | Heading |
|---|---|---|---|---|---|
| 2026-05-04 11:14 | 44.57017 | 26.08025 | 320 ft | 0 kts | 354° |
| 2026-05-04 11:33 | 44.56964 | 26.08034 | 319 ft | 4 kts | 355° |
| 2026-05-04 11:33 | 44.56939 | 26.08033 | 320 ft | 4 kts | 30° |
| 2026-05-04 11:33 | 44.56930 | 26.08015 | 319 ft | 4 kts | 84° |
| 2026-05-04 11:34 | 44.56929 | 26.07993 | 319 ft | 0 kts | 84° |
| 2026-05-04 11:36 | 44.56929 | 26.07995 | 319 ft | 2 kts | 84° |
| 2026-05-04 11:36 | 44.56933 | 26.08047 | 319 ft | 9 kts | 84° |
| 2026-05-04 11:36 | 44.56942 | 26.08176 | 320 ft | 17 kts | 84° |
| 2026-05-04 11:37 | 44.56953 | 26.08329 | 320 ft | 14 kts | 89° |
| 2026-05-04 11:37 | 44.56905 | 26.08431 | 320 ft | 11 kts | 121° |
| 2026-05-04 11:37 | 44.56914 | 26.08529 | 320 ft | 10 kts | 47° |
| 2026-05-04 11:37 | 44.56983 | 26.08540 | 319 ft | 10 kts | 354° |
| 2026-05-04 11:38 | 44.57056 | 26.08529 | 320 ft | 11 kts | 354° |
| 2026-05-04 11:38 | 44.57129 | 26.08519 | 320 ft | 11 kts | 354° |
| 2026-05-04 11:38 | 44.57212 | 26.08507 | 320 ft | 15 kts | 355° |
| 2026-05-04 11:38 | 44.57346 | 26.08485 | 320 ft | 23 kts | 355° |
| 2026-05-04 11:39 | 44.57480 | 26.08468 | 321 ft | 17 kts | 354° |
| 2026-05-04 11:39 | 44.57588 | 26.08453 | 322 ft | 15 kts | 355° |
| 2026-05-04 11:40 | 44.57980 | 26.12684 | 722 ft | 171 kts | 84° |
| 2026-05-04 11:41 | 44.58099 | 26.14336 | 1360 ft | 170 kts | 83° |
| 2026-05-04 11:41 | 44.58221 | 26.15992 | 2014 ft | 172 kts | 83° |
| 2026-05-04 11:41 | 44.58353 | 26.17723 | 2335 ft | 188 kts | 83° |
| 2026-05-04 11:41 | 44.58528 | 26.19649 | 2513 ft | 207 kts | 76° |
| 2026-05-04 11:42 | 44.59313 | 26.21372 | 2784 ft | 222 kts | 33° |
| 2026-05-04 11:42 | 44.60835 | 26.21958 | 3212 ft | 242 kts | 354° |
| 2026-05-04 11:42 | 44.62430 | 26.21041 | 3841 ft | 260 kts | 320° |
| 2026-05-04 11:42 | 44.63643 | 26.19143 | 4727 ft | 261 kts | 316° |
| 2026-05-04 11:43 | 44.65128 | 26.17762 | 5502 ft | 257 kts | 345° |
| 2026-05-04 11:43 | 44.66871 | 26.17308 | 6332 ft | 255 kts | 358° |
| 2026-05-04 11:43 | 44.68644 | 26.17198 | 7119 ft | 255 kts | 1° |
| 2026-05-04 11:43 | 44.70424 | 26.17156 | 7847 ft | 257 kts | 1° |
| 2026-05-04 11:44 | 44.72220 | 26.17080 | 8627 ft | 259 kts | 0° |
| 2026-05-04 11:44 | 44.74033 | 26.16941 | 9399 ft | 262 kts | 358° |
| 2026-05-04 11:44 | 44.75825 | 26.16321 | 10095 ft | 271 kts | 340° |
| 2026-05-04 11:44 | 44.77413 | 26.14810 | 10727 ft | 284 kts | 320° |
| 2026-05-04 11:45 | 44.78619 | 26.12526 | 11198 ft | 301 kts | 307° |
| 2026-05-04 11:45 | 44.79770 | 26.09927 | 11314 ft | 324 kts | 307° |
| 2026-05-04 11:45 | 44.80991 | 26.07142 | 11474 ft | 343 kts | 306° |
| 2026-05-04 11:45 | 44.82255 | 26.04236 | 11978 ft | 351 kts | 306° |
| 2026-05-04 11:46 | 44.83536 | 26.01277 | 12547 ft | 357 kts | 306° |
| 2026-05-04 11:46 | 44.84841 | 25.98275 | 13145 ft | 361 kts | 306° |
| 2026-05-04 11:46 | 44.86131 | 25.95206 | 13729 ft | 369 kts | 301° |
| 2026-05-04 11:46 | 44.87080 | 25.91801 | 14259 ft | 378 kts | 290° |
| 2026-05-04 11:47 | 44.87817 | 25.88228 | 14813 ft | 381 kts | 290° |
| 2026-05-04 11:47 | 44.88569 | 25.84626 | 15379 ft | 384 kts | 290° |
| 2026-05-04 11:47 | 44.89333 | 25.81001 | 15932 ft | 387 kts | 290° |
| 2026-05-04 11:47 | 44.90102 | 25.77352 | 16493 ft | 390 kts | 290° |
| 2026-05-04 11:48 | 44.90876 | 25.73673 | 17046 ft | 392 kts | 290° |
| 2026-05-04 11:48 | 44.91650 | 25.69973 | 17587 ft | 395 kts | 290° |
| 2026-05-04 11:48 | 44.92430 | 25.66236 | 18131 ft | 398 kts | 290° |
| 2026-05-04 11:48 | 44.93214 | 25.62478 | 18614 ft | 401 kts | 290° |
| 2026-05-04 11:49 | 44.94001 | 25.58693 | 19068 ft | 403 kts | 289° |
| 2026-05-04 11:49 | 44.94789 | 25.54885 | 19529 ft | 405 kts | 289° |
| 2026-05-04 11:49 | 44.95581 | 25.51059 | 20001 ft | 407 kts | 289° |
| 2026-05-04 11:49 | 44.96374 | 25.47214 | 20455 ft | 409 kts | 289° |
| 2026-05-04 11:50 | 44.97170 | 25.43345 | 20908 ft | 411 kts | 289° |
| 2026-05-04 11:50 | 44.97968 | 25.39462 | 21369 ft | 413 kts | 289° |
| 2026-05-04 11:50 | 44.98768 | 25.35563 | 21832 ft | 415 kts | 289° |
| 2026-05-04 11:50 | 44.99594 | 25.31645 | 22283 ft | 416 kts | 290° |
| 2026-05-04 11:51 | 45.00518 | 25.27768 | 22719 ft | 417 kts | 292° |
| 2026-05-04 11:51 | 45.01523 | 25.23914 | 23168 ft | 419 kts | 293° |
| 2026-05-04 11:51 | 45.02569 | 25.20064 | 23586 ft | 421 kts | 293° |
| 2026-05-04 11:51 | 45.03570 | 25.16160 | 23926 ft | 423 kts | 291° |
| 2026-05-04 11:52 | 45.04461 | 25.12185 | 24267 ft | 426 kts | 288° |
| 2026-05-04 11:52 | 45.05273 | 25.08140 | 24612 ft | 428 kts | 287° |
| 2026-05-04 11:52 | 45.06041 | 25.04060 | 24943 ft | 431 kts | 286° |
| 2026-05-04 11:52 | 45.06799 | 24.99949 | 25270 ft | 433 kts | 286° |
| 2026-05-04 11:53 | 45.07570 | 24.95820 | 25599 ft | 435 kts | 286° |
| 2026-05-04 11:53 | 45.08365 | 24.91675 | 25921 ft | 437 kts | 287° |
| 2026-05-04 11:53 | 45.09181 | 24.87522 | 26224 ft | 440 kts | 287° |
| 2026-05-04 11:53 | 45.10012 | 24.83338 | 26536 ft | 442 kts | 287° |
| 2026-05-04 11:55 | 45.15857 | 24.53450 | 28659 ft | 457 kts | 285° |
| 2026-05-04 11:55 | 45.16697 | 24.49106 | 28956 ft | 458 kts | 285° |
| 2026-05-04 11:56 | 45.17538 | 24.44739 | 29239 ft | 460 kts | 284° |
| 2026-05-04 11:56 | 45.18382 | 24.40355 | 29544 ft | 461 kts | 284° |
| 2026-05-04 11:56 | 45.19226 | 24.35961 | 29833 ft | 463 kts | 284° |
| 2026-05-04 11:56 | 45.20074 | 24.31547 | 30117 ft | 465 kts | 284° |
| 2026-05-04 11:57 | 45.20921 | 24.27119 | 30391 ft | 465 kts | 284° |
| 2026-05-04 11:57 | 45.21763 | 24.22697 | 30763 ft | 463 kts | 284° |
| 2026-05-04 11:57 | 45.22600 | 24.18292 | 31126 ft | 462 kts | 284° |
| 2026-05-04 11:57 | 45.23433 | 24.13894 | 31468 ft | 461 kts | 284° |
| 2026-05-04 11:58 | 45.24267 | 24.09499 | 31808 ft | 461 kts | 284° |
| 2026-05-04 11:58 | 45.25099 | 24.05116 | 32129 ft | 460 kts | 285° |
| 2026-05-04 11:58 | 45.25930 | 24.00727 | 32437 ft | 460 kts | 285° |
| 2026-05-04 11:58 | 45.26757 | 23.96338 | 32725 ft | 461 kts | 285° |
| 2026-05-04 11:59 | 45.27581 | 23.91948 | 33035 ft | 460 kts | 286° |
| 2026-05-04 11:59 | 45.28402 | 23.87555 | 33305 ft | 461 kts | 286° |
| 2026-05-04 11:59 | 45.29223 | 23.83151 | 33570 ft | 462 kts | 286° |
| 2026-05-04 11:59 | 45.30043 | 23.78739 | 33848 ft | 462 kts | 287° |
| 2026-05-04 12:00 | 45.30863 | 23.74333 | 34068 ft | 462 kts | 287° |
| 2026-05-04 12:00 | 45.32480 | 23.65616 | 34108 ft | 453 kts | 287° |
| 2026-05-04 12:01 | 45.34078 | 23.56972 | 34126 ft | 451 kts | 287° |
| 2026-05-04 12:02 | 45.39576 | 23.26850 | 34108 ft | 448 kts | 287° |
| 2026-05-04 12:03 | 45.41126 | 23.18278 | 34112 ft | 447 kts | 287° |
| 2026-05-04 12:03 | 45.42662 | 23.09709 | 34119 ft | 446 kts | 287° |
| 2026-05-04 12:04 | 45.44188 | 23.01158 | 34124 ft | 445 kts | 287° |
| 2026-05-04 12:04 | 45.45711 | 22.92626 | 34130 ft | 444 kts | 287° |
| 2026-05-04 12:05 | 45.47222 | 22.84099 | 34135 ft | 443 kts | 287° |
| 2026-05-04 12:05 | 45.48722 | 22.75582 | 34129 ft | 443 kts | 287° |
| 2026-05-04 12:06 | 45.50212 | 22.67066 | 34127 ft | 443 kts | 287° |
| 2026-05-04 12:06 | 45.51829 | 22.58620 | 34125 ft | 439 kts | 294° |
| 2026-05-04 12:07 | 45.54480 | 22.50827 | 34124 ft | 436 kts | 300° |
| 2026-05-04 12:07 | 45.57234 | 22.43105 | 34123 ft | 436 kts | 300° |
| 2026-05-04 12:08 | 45.59966 | 22.35375 | 34118 ft | 436 kts | 300° |
| 2026-05-04 12:08 | 45.62232 | 22.28946 | 34110 ft | 436 kts | 300° |
| 2026-05-04 12:09 | 45.64959 | 22.21216 | 34121 ft | 435 kts | 300° |
| 2026-05-04 12:09 | 45.67669 | 22.13482 | 34118 ft | 435 kts | 300° |
| 2026-05-04 12:10 | 45.70373 | 22.05748 | 34123 ft | 434 kts | 300° |
| 2026-05-04 12:10 | 45.73070 | 21.98019 | 34121 ft | 433 kts | 300° |
| 2026-05-04 12:11 | 45.75752 | 21.90301 | 34124 ft | 433 kts | 300° |
| 2026-05-04 12:11 | 45.78432 | 21.82585 | 34121 ft | 432 kts | 300° |
| 2026-05-04 12:12 | 45.81103 | 21.74876 | 34126 ft | 432 kts | 300° |
| 2026-05-04 12:12 | 45.83764 | 21.67153 | 34128 ft | 432 kts | 299° |
| 2026-05-04 12:14 | 45.94353 | 21.36256 | 34141 ft | 431 kts | 299° |
| 2026-05-04 12:15 | 45.96982 | 21.28525 | 34142 ft | 430 kts | 299° |
| 2026-05-04 12:15 | 45.99601 | 21.20795 | 34143 ft | 430 kts | 299° |
| 2026-05-04 12:16 | 46.02213 | 21.13075 | 34145 ft | 429 kts | 299° |
| 2026-05-04 12:16 | 46.04816 | 21.05357 | 34142 ft | 429 kts | 299° |
| 2026-05-04 12:17 | 46.07414 | 20.97636 | 34139 ft | 428 kts | 299° |
| 2026-05-04 12:17 | 46.10003 | 20.89909 | 34142 ft | 428 kts | 299° |
| 2026-05-04 12:18 | 46.12582 | 20.82181 | 34144 ft | 428 kts | 299° |
| 2026-05-04 12:18 | 46.15156 | 20.74447 | 34143 ft | 428 kts | 299° |
| 2026-05-04 12:19 | 46.17286 | 20.66426 | 34141 ft | 431 kts | 290° |
| 2026-05-04 12:19 | 46.19006 | 20.58140 | 34140 ft | 431 kts | 290° |
| 2026-05-04 12:20 | 46.20713 | 20.49855 | 34139 ft | 430 kts | 290° |
| 2026-05-04 12:20 | 46.22419 | 20.41570 | 34141 ft | 430 kts | 290° |
| 2026-05-04 12:21 | 46.24120 | 20.33293 | 34134 ft | 429 kts | 290° |
| 2026-05-04 12:21 | 46.25812 | 20.25026 | 34134 ft | 429 kts | 290° |
| 2026-05-04 12:22 | 46.27497 | 20.16765 | 34135 ft | 429 kts | 290° |
| 2026-05-04 12:22 | 46.29176 | 20.08492 | 34126 ft | 428 kts | 289° |
| 2026-05-04 12:23 | 46.30842 | 20.00229 | 34122 ft | 428 kts | 289° |
| 2026-05-04 12:23 | 46.32502 | 19.91964 | 34120 ft | 427 kts | 289° |
| 2026-05-04 12:24 | 46.34157 | 19.83704 | 34117 ft | 427 kts | 289° |
| 2026-05-04 12:24 | 46.35804 | 19.75443 | 34118 ft | 427 kts | 289° |
| 2026-05-04 12:25 | 46.37445 | 19.67175 | 34112 ft | 427 kts | 289° |
| 2026-05-04 12:25 | 46.39081 | 19.58906 | 34117 ft | 427 kts | 289° |
| 2026-05-04 12:26 | 46.40707 | 19.50630 | 34112 ft | 427 kts | 289° |
| 2026-05-04 12:26 | 46.42328 | 19.42355 | 34105 ft | 427 kts | 289° |
| 2026-05-04 12:27 | 46.43944 | 19.34085 | 34094 ft | 426 kts | 288° |
| 2026-05-04 12:27 | 46.45550 | 19.25809 | 34099 ft | 426 kts | 288° |
| 2026-05-04 12:28 | 46.47151 | 19.17526 | 34095 ft | 426 kts | 288° |
| 2026-05-04 12:28 | 46.48750 | 19.09242 | 34098 ft | 426 kts | 288° |
| 2026-05-04 12:29 | 46.50347 | 19.00957 | 34093 ft | 426 kts | 288° |
| 2026-05-04 12:29 | 46.51930 | 18.92656 | 34084 ft | 427 kts | 288° |
| 2026-05-04 12:30 | 46.53503 | 18.84350 | 34087 ft | 427 kts | 288° |
| 2026-05-04 12:30 | 46.55071 | 18.76038 | 34083 ft | 427 kts | 288° |
| 2026-05-04 12:31 | 46.56645 | 18.67722 | 34087 ft | 427 kts | 288° |
| 2026-05-04 12:31 | 46.58213 | 18.59406 | 34091 ft | 427 kts | 287° |
| 2026-05-04 12:32 | 46.60542 | 18.46904 | 34086 ft | 427 kts | 287° |
| 2026-05-04 12:33 | 46.62085 | 18.38566 | 34087 ft | 427 kts | 287° |
| 2026-05-04 12:33 | 46.63629 | 18.30221 | 34090 ft | 427 kts | 287° |
| 2026-05-04 12:34 | 46.65145 | 18.22028 | 34093 ft | 427 kts | 287° |
| 2026-05-04 12:34 | 46.66670 | 18.13708 | 34088 ft | 426 kts | 287° |
| 2026-05-04 12:35 | 46.68160 | 18.05501 | 34084 ft | 426 kts | 287° |
| 2026-05-04 12:35 | 46.69079 | 18.00433 | 34091 ft | 426 kts | 287° |